Time;durP1;ratioP1;P1;durP2;ratioP2;P2;SDS_P1;SDS_P2;PMS_P1;PMS_P2;Temp;Humidity;BMP_temperature;BMP_pressure;BME280_temperature;BME280_humidity;BME280_pressure;Samples;Min_cycle;Max_cycle;Signal;HPM_P1;HPM_P2
2023/04/08 00:00:10;;;;;;;0.10;0.10;;;4.90;99.90;;;;;;4968164;28;20027;-78
2023/04/08 00:02:39;;;;;;;0.10;0.10;;;4.90;99.90;;;;;;4968613;28;20049;-78
2023/04/08 00:05:06;;;;;;;0.10;0.10;;;3.00;99.90;;;;;;4969065;28;20018;-77
2023/04/08 00:07:34;;;;;;;0.85;0.85;;;4.90;99.90;;;;;;4966863;28;20047;-78
2023/04/08 00:10:00;;;;;;;0.10;0.10;;;4.90;99.90;;;;;;4946706;28;20027;-78
2023/04/08 00:12:27;;;;;;;5.63;5.43;;;4.80;99.90;;;;;;4961821;28;20037;-78
2023/04/08 00:14:54;;;;;;;0.10;0.10;;;;;;;;;;4957044;28;20042;-78
2023/04/08 00:17:25;;;;;;;0.10;0.10;;;4.80;99.90;;;;;;4966808;28;20647;-78
2023/04/08 00:19:54;;;;;;;0.00;0.00;;;3.30;99.90;;;;;;4970123;28;20027;-78
2023/04/08 00:22:21;;;;;;;70.70;36.70;;;4.80;99.90;;;;;;4975592;28;20022;-78
2023/04/08 00:24:47;;;;;;;0.10;0.10;;;4.80;99.90;;;;;;4978270;28;20023;-78
2023/04/08 00:27:13;;;;;;;0.30;0.30;;;4.70;99.90;;;;;;4978577;28;20034;-78
2023/04/08 00:29:40;;;;;;;0.08;0.08;;;;;;;;;;4970360;28;20045;-78
2023/04/08 00:32:20;;;;;;;0.15;0.15;;;4.80;99.90;;;;;;4980183;28;20039;-78
2023/04/08 00:34:50;;;;;;;0.20;0.20;;;4.80;99.90;;;;;;4981614;28;20030;-78
2023/04/08 00:37:16;;;;;;;0.98;0.95;;;3.20;99.90;;;;;;4970141;28;20038;-78
2023/04/08 00:39:52;;;;;;;0.10;0.10;;;4.70;99.90;;;;;;4961488;28;20026;-78
2023/04/08 00:42:24;;;;;;;1.13;1.13;;;4.80;99.90;;;;;;4977043;28;20018;-78
2023/04/08 00:44:53;;;;;;;0.10;0.10;;;4.80;99.90;;;;;;4975975;28;20066;-78
2023/04/08 00:47:20;;;;;;;2.50;2.40;;;4.70;99.90;;;;;;4975094;28;20019;-78
2023/04/08 00:49:46;;;;;;;0.45;0.45;;;4.70;99.90;;;;;;4976100;28;20026;-78
2023/04/08 00:52:15;;;;;;;3.42;3.33;;;4.60;99.90;;;;;;4955832;28;20671;-78
2023/04/08 00:54:41;;;;;;;0.10;0.10;;;4.60;99.90;;;;;;4955918;28;20620;-79
2023/04/08 00:57:09;;;;;;;0.10;0.10;;;4.60;99.90;;;;;;4977080;28;20043;-78
2023/04/08 00:59:36;;;;;;;0.10;0.10;;;;;;;;;;4976838;28;20014;-78
2023/04/08 01:02:41;;;;;;;0.10;0.10;;;5.30;99.90;;;;;;4978517;28;20030;-78
2023/04/08 01:05:34;;;;;;;0.10;0.10;;;4.70;99.90;;;;;;4958763;28;20018;-79
2023/04/08 01:08:07;;;;;;;0.08;0.08;;;6.90;99.90;;;;;;4899087;29;20029;-78
2023/04/08 01:10:34;;;;;;;0.03;0.03;;;4.60;99.90;;;;;;4892258;29;20128;-78
2023/04/08 01:13:05;;;;;;;0.00;0.00;;;4.60;99.90;;;;;;4900749;29;20057;-78
2023/04/08 01:15:37;;;;;;;0.10;0.10;;;4.60;99.90;;;;;;4881931;29;20037;-78
2023/04/08 01:18:11;;;;;;;2.55;2.45;;;4.60;99.90;;;;;;4879535;29;20149;-78
2023/04/08 01:20:39;;;;;;;0.30;0.30;;;6.50;99.90;;;;;;4884225;29;20106;-78
2023/04/08 01:23:36;;;;;;;0.10;0.10;;;4.60;99.90;;;;;;4898678;29;20028;-77
2023/04/08 01:26:02;;;;;;;0.20;0.20;;;4.60;99.90;;;;;;4893622;29;20701;-79
2023/04/08 01:28:32;;;;;;;0.17;0.17;;;4.60;99.90;;;;;;4873965;29;20189;-78
2023/04/08 01:31:05;;;;;;;0.10;0.10;;;4.60;99.90;;;;;;4894100;29;20033;-78
2023/04/08 01:33:31;;;;;;;0.10;0.10;;;4.50;99.90;;;;;;4880224;29;20025;-79
2023/04/08 01:36:13;;;;;;;0.50;0.50;;;4.60;99.90;;;;;;4895651;29;20040;-79
2023/04/08 01:38:42;;;;;;;0.10;0.10;;;4.60;99.90;;;;;;4879805;29;20029;-79
2023/04/08 01:41:10;;;;;;;0.10;0.10;;;4.60;99.90;;;;;;4884491;29;20021;-79
2023/04/08 01:43:39;;;;;;;0.10;0.10;;;4.60;99.90;;;;;;4899224;29;20050;-79
2023/04/08 01:46:11;;;;;;;0.10;0.10;;;4.70;99.90;;;;;;4973310;28;20070;-78
2023/04/08 01:48:58;;;;;;;0.25;0.25;;;4.70;99.90;;;;;;4978525;28;20488;-78
2023/04/08 01:51:26;;;;;;;10.77;3.20;;;4.70;99.90;;;;;;4980689;28;20031;-78
2023/04/08 01:53:57;;;;;;;0.73;0.73;;;4.80;99.90;;;;;;4977312;28;20019;-78
2023/04/08 01:56:32;;;;;;;0.10;0.10;;;4.90;99.90;;;;;;4971118;28;20041;-78
2023/04/08 01:59:00;;;;;;;0.10;0.10;;;4.40;99.90;;;;;;4957070;28;20207;-78
2023/04/08 02:01:27;;;;;;;0.10;0.10;;;4.90;99.90;;;;;;4974346;28;20018;-79
2023/04/08 02:03:58;;;;;;;0.10;0.10;;;4.90;99.90;;;;;;4957860;28;20049;-78
2023/04/08 02:06:26;;;;;;;0.10;0.10;;;4.90;99.90;;;;;;4974256;28;20023;-78
2023/04/08 02:08:57;;;;;;;0.05;0.05;;;4.90;99.90;;;;;;4974583;28;20042;-78
2023/04/08 02:11:27;;;;;;;0.15;0.15;;;4.70;99.90;;;;;;4967798;28;20019;-78
2023/04/08 02:13:53;;;;;;;0.10;0.10;;;4.70;99.90;;;;;;4963187;28;20030;-79
2023/04/08 02:16:24;;;;;;;0.10;0.10;;;4.60;99.90;;;;;;4947078;28;20038;-78
2023/04/08 02:19:08;;;;;;;0.00;0.00;;;4.70;99.90;;;;;;4951414;28;20163;-78
2023/04/08 02:21:50;;;;;;;0.10;0.10;;;4.80;99.90;;;;;;4969884;28;20116;-78
2023/04/08 02:24:26;;;;;;;13.90;13.18;;;4.80;99.90;;;;;;4951626;28;20788;-79
2023/04/08 02:26:55;;;;;;;0.10;0.10;;;4.80;99.90;;;;;;4956032;28;20050;-79
2023/04/08 02:29:24;;;;;;;0.10;0.10;;;4.80;99.90;;;;;;4969768;28;20638;-77
2023/04/08 02:31:51;;;;;;;0.10;0.10;;;4.80;99.90;;;;;;4969178;28;20755;-78
2023/04/08 02:34:18;;;;;;;0.00;0.00;;;4.80;99.90;;;;;;4945441;28;20027;-79
2023/04/08 02:36:46;;;;;;;0.10;0.10;;;;;;;;;;4969702;28;20027;-78
2023/04/08 02:39:13;;;;;;;4.60;4.40;;;4.80;99.90;;;;;;4966643;28;20023;-78
2023/04/08 02:41:42;;;;;;;0.20;0.20;;;4.80;99.90;;;;;;4964074;28;20042;-78
2023/04/08 02:44:09;;;;;;;31.35;5.47;;;4.80;99.90;;;;;;4946725;28;20046;-78
2023/04/08 02:46:37;;;;;;;1.55;1.55;;;4.80;99.90;;;;;;4947315;28;20027;-78
2023/04/08 02:49:07;;;;;;;67.75;11.15;;;4.70;99.90;;;;;;4945990;28;20637;-78
2023/04/08 02:51:33;;;;;;;0.20;0.20;;;4.80;99.90;;;;;;4946134;28;20675;-78
2023/04/08 02:54:00;;;;;;;0.10;0.10;;;4.60;99.90;;;;;;4946023;28;20033;-78
2023/04/08 02:56:27;;;;;;;0.10;0.10;;;4.70;99.90;;;;;;4951992;28;20050;-77
2023/04/08 02:59:02;;;;;;;0.10;0.10;;;4.70;99.90;;;;;;4973292;28;20664;-77
2023/04/08 03:01:34;;;;;;;2.22;2.13;;;4.70;99.90;;;;;;4969301;28;20027;-78
2023/04/08 03:04:01;;;;;;;0.40;0.40;;;4.60;99.90;;;;;;4973238;28;20038;-77
2023/04/08 03:06:32;;;;;;;0.10;0.10;;;4.50;99.90;;;;;;4973632;28;20022;-77
2023/04/08 03:08:59;;;;;;;0.00;0.00;;;3.10;99.90;;;;;;4973220;28;20116;-77
2023/04/08 03:11:29;;;;;;;0.10;0.10;;;;;;;;;;4973485;28;20078;-78
2023/04/08 03:13:54;;;;;;;7.03;4.85;;;4.50;99.90;;;;;;4972809;28;20065;-78
2023/04/08 03:16:22;;;;;;;0.20;0.20;;;4.50;99.90;;;;;;4972014;28;20042;-76
2023/04/08 03:18:56;;;;;;;0.10;0.10;;;4.50;99.90;;;;;;4971991;28;20025;-77
2023/04/08 03:21:31;;;;;;;0.10;0.10;;;4.30;99.90;;;;;;4971495;28;20033;-78
2023/04/08 03:24:01;;;;;;;0.10;0.10;;;4.40;99.90;;;;;;4954226;28;20030;-78
2023/04/08 03:26:32;;;;;;;0.10;0.10;;;6.10;99.90;;;;;;4953970;28;20026;-77
2023/04/08 03:28:59;;;;;;;0.10;0.10;;;4.40;99.90;;;;;;4967293;28;20106;-78
2023/04/08 03:31:27;;;;;;;0.22;0.22;;;4.20;99.90;;;;;;4974291;28;20048;-77
2023/04/08 03:33:53;;;;;;;0.10;0.10;;;2.40;99.90;;;;;;4975207;28;20010;-79
2023/04/08 03:36:22;;;;;;;0.20;0.20;;;2.60;99.90;;;;;;4972752;28;20035;-77
2023/04/08 03:38:54;;;;;;;1.33;1.33;;;4.20;99.90;;;;;;4955200;28;20034;-77
2023/04/08 03:41:22;;;;;;;0.10;0.10;;;4.30;99.90;;;;;;4942123;28;20062;-77
2023/04/08 03:43:47;;;;;;;0.10;0.10;;;4.10;99.90;;;;;;4969545;28;20027;-78
2023/04/08 03:46:33;;;;;;;1.50;1.42;;;2.40;99.90;;;;;;4971725;28;20616;-77
2023/04/08 03:49:06;;;;;;;0.20;0.20;;;4.30;99.90;;;;;;4949690;28;20031;-77
2023/04/08 03:51:32;;;;;;;0.10;0.10;;;4.30;99.90;;;;;;4975244;28;20027;-77
2023/04/08 03:54:03;;;;;;;0.10;0.10;;;4.30;99.90;;;;;;4976701;28;20094;-78
2023/04/08 03:56:33;;;;;;;0.10;0.10;;;4.30;99.90;;;;;;4967101;28;20054;-78
2023/04/08 03:59:00;;;;;;;0.20;0.20;;;4.40;99.90;;;;;;4968669;28;20065;-78
2023/04/08 04:01:37;;;;;;;0.70;0.70;;;4.20;99.90;;;;;;4970408;28;20058;-78
2023/04/08 04:04:09;;;;;;;0.90;0.90;;;4.10;99.90;;;;;;4972354;28;20703;-78
2023/04/08 04:06:38;;;;;;;0.88;0.88;;;4.30;99.90;;;;;;4977101;28;20571;-79
2023/04/08 04:09:11;;;;;;;0.13;0.13;;;4.10;99.90;;;;;;4949926;28;20011;-78
2023/04/08 04:11:58;;;;;;;0.00;0.00;;;4.10;99.90;;;;;;4966190;28;20560;-78
2023/04/08 04:14:24;;;;;;;0.05;0.05;;;4.30;99.90;;;;;;4952453;28;20702;-78
2023/04/08 04:17:08;;;;;;;0.10;0.10;;;2.90;99.90;;;;;;4933300;28;20051;-78
2023/04/08 04:19:34;;;;;;;0.10;0.10;;;;;;;;;;4969795;28;20035;-78
2023/04/08 04:22:03;;;;;;;6.18;5.80;;;4.10;99.90;;;;;;4949595;28;20251;-78
2023/04/08 04:24:34;;;;;;;0.10;0.10;;;4.10;99.90;;;;;;4954584;28;20031;-77
2023/04/08 04:27:07;;;;;;;0.10;0.10;;;4.20;99.90;;;;;;4970187;28;20015;-78
2023/04/08 04:29:33;;;;;;;0.10;0.10;;;4.10;99.90;;;;;;4949829;28;20758;-79
2023/04/08 04:31:59;;;;;;;11.25;10.75;;;4.70;99.90;;;;;;4936939;28;20030;-78
2023/04/08 04:34:26;;;;;;;0.10;0.10;;;;;;;;;;4953201;28;20019;-78
2023/04/08 04:36:52;;;;;;;0.10;0.10;;;;;;;;;;4977250;28;20580;-79
2023/04/08 04:39:24;;;;;;;0.10;0.10;;;4.20;99.90;;;;;;4974988;28;20422;-78
2023/04/08 04:42:02;;;;;;;0.10;0.10;;;4.20;99.90;;;;;;4975007;28;20023;-79
2023/04/08 04:44:42;;;;;;;;;;;;;;;;;;;;;
2023/04/08 04:47:12;;;;;;;0.10;0.10;;;;;;;;;;4975137;28;20101;-78
2023/04/08 04:49:40;;;;;;;0.10;0.10;;;4.30;99.90;;;;;;4966123;28;20228;-79
2023/04/08 04:52:07;;;;;;;0.10;0.10;;;;;;;;;;4965752;28;20725;-78
2023/04/08 04:54:32;;;;;;;0.10;0.10;;;4.20;99.90;;;;;;4965821;28;20023;-78
2023/04/08 04:56:58;;;;;;;0.10;0.10;;;4.10;99.90;;;;;;4948424;28;20038;-78
2023/04/08 04:59:24;;;;;;;0.10;0.10;;;4.10;99.90;;;;;;4966780;28;20023;-78
2023/04/08 05:01:50;;;;;;;0.10;0.10;;;4.10;99.90;;;;;;4965587;28;20026;-78
2023/04/08 05:04:16;;;;;;;0.10;0.10;;;;;;;;;;4965354;28;20054;-78
2023/04/08 05:06:44;;;;;;;0.10;0.10;;;4.20;99.90;;;;;;4967522;28;20030;-78
2023/04/08 05:09:11;;;;;;;0.20;0.20;;;;;;;;;;4949036;28;20022;-78
2023/04/08 05:11:42;;;;;;;0.15;0.15;;;4.30;99.90;;;;;;4965645;28;20031;-78
2023/04/08 05:14:08;;;;;;;0.08;0.08;;;4.40;99.90;;;;;;4966689;28;20031;-78
2023/04/08 05:16:34;;;;;;;0.57;0.57;;;4.40;99.90;;;;;;4965757;28;20113;-78
2023/04/08 05:19:02;;;;;;;16.70;5.47;;;4.40;99.90;;;;;;4964618;28;20031;-78
2023/04/08 05:21:35;;;;;;;0.10;0.10;;;4.40;99.90;;;;;;4974702;28;20271;-77
2023/04/08 05:24:02;;;;;;;0.10;0.10;;;;;;;;;;4955901;28;20110;-78
2023/04/08 05:26:29;;;;;;;0.10;0.10;;;;;;;;;;4973673;28;20589;-78
2023/04/08 05:28:55;;;;;;;0.10;0.10;;;4.50;99.90;;;;;;4973492;28;20050;-78
2023/04/08 05:31:21;;;;;;;1.58;1.58;;;4.60;99.90;;;;;;4974699;28;20031;-78
2023/04/08 05:33:47;;;;;;;1.52;1.48;;;4.60;99.90;;;;;;4977525;28;20026;-78
2023/04/08 05:36:16;;;;;;;0.20;0.20;;;4.70;99.90;;;;;;4966807;28;20031;-78
2023/04/08 05:38:45;;;;;;;4.93;4.72;;;4.70;99.90;;;;;;4964442;28;20529;-78
2023/04/08 05:41:10;;;;;;;0.10;0.10;;;4.80;99.90;;;;;;4947018;28;20071;-78
2023/04/08 05:43:36;;;;;;;0.10;0.10;;;;;;;;;;4965164;28;20587;-78
2023/04/08 05:46:09;;;;;;;1.45;1.00;;;4.80;99.90;;;;;;4965474;28;20477;-79
2023/04/08 05:48:35;;;;;;;0.03;0.03;;;4.90;99.90;;;;;;4946664;28;20031;-78
2023/04/08 05:51:03;;;;;;;0.10;0.10;;;5.10;99.90;;;;;;4968826;28;20693;-78
2023/04/08 05:53:33;;;;;;;0.28;0.28;;;5.80;99.90;;;;;;4972360;28;20097;-78
2023/04/08 05:55:59;;;;;;;0.03;0.03;;;5.40;99.90;;;;;;4972973;28;20039;-78
2023/04/08 05:58:26;;;;;;;0.68;0.68;;;5.60;99.90;;;;;;4972139;28;20034;-78
2023/04/08 06:00:54;;;;;;;0.38;0.38;;;5.70;99.90;;;;;;4974498;28;20062;-77
2023/04/08 06:03:21;;;;;;;9.15;8.85;;;;;;;;;;4977038;28;20081;-77
2023/04/08 06:05:47;;;;;;;0.10;0.10;;;5.90;99.90;;;;;;4974570;28;20038;-78
2023/04/08 06:08:13;;;;;;;0.03;0.03;;;;;;;;;;4974067;28;20031;-77
2023/04/08 06:10:47;;;;;;;0.05;0.05;;;6.10;99.90;;;;;;4973183;28;20062;-78
2023/04/08 06:13:13;;;;;;;0.10;0.10;;;5.90;99.90;;;;;;4974872;28;20075;-78
2023/04/08 06:15:40;;;;;;;0.50;0.50;;;6.10;99.90;;;;;;4974880;28;20023;-78
2023/04/08 06:18:16;;;;;;;0.10;0.10;;;6.30;99.90;;;;;;4971169;28;20034;-78
2023/04/08 06:20:42;;;;;;;0.20;0.20;;;6.50;99.90;;;;;;4963815;28;20031;-78
2023/04/08 06:23:08;;;;;;;0.00;0.00;;;6.60;99.90;;;;;;4970368;28;20057;-78
2023/04/08 06:25:35;;;;;;;0.20;0.20;;;6.80;99.90;;;;;;4978528;28;20041;-78
2023/04/08 06:28:06;;;;;;;0.03;0.03;;;7.60;99.90;;;;;;4980637;28;20023;-78
2023/04/08 06:30:37;;;;;;;0.00;0.00;;;7.20;99.90;;;;;;4973108;28;20046;-78
2023/04/08 06:33:04;;;;;;;0.35;0.35;;;7.10;99.90;;;;;;4991877;28;20069;-78
2023/04/08 06:35:30;;;;;;;0.00;0.00;;;7.20;99.90;;;;;;4972507;28;20023;-82
2023/04/08 06:38:05;;;;;;;1.15;1.13;;;7.30;99.90;;;;;;4985445;28;20038;-79
2023/04/08 06:40:40;;;;;;;0.10;0.10;;;7.30;99.90;;;;;;4979675;28;20027;-79
2023/04/08 06:43:16;;;;;;;0.25;0.25;;;7.00;99.90;;;;;;4962833;28;20015;-79
2023/04/08 06:45:42;;;;;;;0.10;0.10;;;7.20;99.90;;;;;;4978750;28;20137;-78
2023/04/08 06:48:09;;;;;;;0.10;0.10;;;;;;;;;;4966958;28;20133;-78
2023/04/08 06:50:36;;;;;;;3.72;3.47;;;7.40;99.90;;;;;;4971941;28;20026;-78
2023/04/08 06:53:05;;;;;;;0.00;0.00;;;7.80;99.90;;;;;;4973019;28;20034;-78
2023/04/08 06:55:32;;;;;;;0.00;0.00;;;7.80;99.90;;;;;;4972512;28;20038;-77
2023/04/08 06:58:01;;;;;;;6.45;6.03;;;8.00;99.90;;;;;;4979266;28;20023;-78
2023/04/08 07:00:28;;;;;;;0.20;0.20;;;7.70;99.90;;;;;;4980946;28;20509;-78
2023/04/08 07:02:56;;;;;;;0.10;0.10;;;8.20;99.90;;;;;;4967567;28;20033;-78
2023/04/08 07:05:21;;;;;;;0.15;0.15;;;8.50;99.90;;;;;;4983936;28;20039;-78
2023/04/08 07:07:47;;;;;;;0.00;0.00;;;6.30;99.90;;;;;;4984690;28;20023;-78
2023/04/08 07:10:16;;;;;;;0.10;0.10;;;8.60;99.90;;;;;;4959291;28;20123;-78
2023/04/08 07:12:42;;;;;;;0.00;0.00;;;11.00;99.90;;;;;;4959172;28;20049;-77
2023/04/08 07:15:08;;;;;;;0.10;0.10;;;8.70;99.90;;;;;;4975517;28;20022;-78
2023/04/08 07:17:34;;;;;;;0.10;0.10;;;8.90;99.90;;;;;;4973803;28;20093;-78
2023/04/08 07:19:59;;;;;;;0.20;0.20;;;9.00;99.90;;;;;;4970273;28;20018;-78
2023/04/08 07:22:26;;;;;;;0.00;0.00;;;8.50;99.90;;;;;;4950602;28;20019;-78
2023/04/08 07:24:52;;;;;;;0.10;0.10;;;8.80;99.90;;;;;;4963772;28;20102;-78
2023/04/08 07:27:20;;;;;;;0.43;0.43;;;9.10;99.90;;;;;;4958654;28;20053;-77
2023/04/08 07:29:53;;;;;;;0.00;0.00;;;9.00;99.90;;;;;;4977931;28;20046;-77
2023/04/08 07:32:22;;;;;;;0.10;0.10;;;9.10;99.90;;;;;;4966600;28;20015;-78
2023/04/08 07:34:48;;;;;;;0.45;0.45;;;9.20;99.90;;;;;;4945901;28;20665;-78
2023/04/08 07:37:14;;;;;;;0.28;0.28;;;9.20;99.90;;;;;;4955403;28;20106;-77
2023/04/08 07:39:46;;;;;;;0.52;0.52;;;7.20;99.90;;;;;;4965300;28;20046;-78
2023/04/08 07:42:11;;;;;;;0.15;0.15;;;9.50;99.90;;;;;;4946363;28;20413;-77
2023/04/08 07:44:37;;;;;;;0.10;0.10;;;9.30;99.90;;;;;;4962439;28;20110;-78
2023/04/08 07:47:03;;;;;;;0.20;0.20;;;9.50;99.90;;;;;;4946508;28;20022;-79
2023/04/08 07:49:29;;;;;;;0.10;0.10;;;9.60;99.90;;;;;;4965970;28;20039;-77
2023/04/08 07:51:58;;;;;;;0.20;0.20;;;9.60;99.90;;;;;;4949113;28;20077;-78
2023/04/08 07:54:24;;;;;;;0.10;0.10;;;9.60;99.90;;;;;;4966801;28;20058;-78
2023/04/08 07:56:50;;;;;;;0.88;0.88;;;;;;;;;;4972074;28;20034;-78
2023/04/08 07:59:25;;;;;;;1.58;1.48;;;9.50;99.90;;;;;;4954032;28;20019;-78
2023/04/08 08:01:51;;;;;;;0.00;0.00;;;9.50;99.90;;;;;;4969983;28;20026;-78
2023/04/08 08:04:17;;;;;;;0.10;0.10;;;9.50;99.90;;;;;;4934656;28;20057;-78
2023/04/08 08:06:55;;;;;;;0.10;0.10;;;9.50;99.90;;;;;;4970952;28;20023;-78
2023/04/08 08:09:23;;;;;;;0.10;0.10;;;8.20;99.90;;;;;;4950576;28;20027;-77
2023/04/08 08:11:49;;;;;;;0.08;0.08;;;9.40;99.90;;;;;;4965914;28;20022;-78
2023/04/08 08:14:17;;;;;;;0.10;0.10;;;9.60;99.90;;;;;;4969405;28;20039;-78
2023/04/08 08:16:49;;;;;;;0.10;0.10;;;9.80;99.90;;;;;;4953506;28;20030;-77
2023/04/08 08:19:15;;;;;;;0.10;0.10;;;9.60;99.90;;;;;;4966886;28;20054;-78
2023/04/08 08:21:41;;;;;;;9.70;9.05;;;9.80;99.90;;;;;;4955816;28;20039;-78
2023/04/08 08:24:17;;;;;;;0.00;0.00;;;10.10;99.90;;;;;;4974589;28;20019;-79
2023/04/08 08:26:48;;;;;;;0.22;0.22;;;10.40;98.90;;;;;;4956691;28;20058;-78
2023/04/08 08:29:19;;;;;;;0.10;0.10;;;9.90;98.70;;;;;;4966550;28;20703;-78
2023/04/08 08:31:49;;;;;;;2.65;2.53;;;9.60;98.30;;;;;;4972871;28;20027;-77
2023/04/08 08:34:15;;;;;;;0.10;0.10;;;10.60;97.50;;;;;;4954732;28;20090;-78
2023/04/08 08:36:41;;;;;;;0.52;0.52;;;9.70;95.50;;;;;;4971274;28;20039;-78
2023/04/08 08:39:08;;;;;;;0.80;0.80;;;10.60;95.80;;;;;;4955054;28;20022;-78
2023/04/08 08:41:44;;;;;;;0.10;0.10;;;10.60;95.60;;;;;;4981563;28;20015;-79
2023/04/08 08:44:13;;;;;;;0.10;0.10;;;8.80;96.20;;;;;;4972630;28;20049;-79
2023/04/08 08:46:50;;;;;;;0.10;0.10;;;10.80;95.00;;;;;;4986668;28;20242;-79
2023/04/08 08:49:16;;;;;;;0.20;0.20;;;10.90;94.90;;;;;;4977710;28;20041;-80
2023/04/08 08:51:45;;;;;;;0.20;0.20;;;11.20;94.20;;;;;;4978972;28;20050;-80
2023/04/08 08:54:14;;;;;;;0.10;0.10;;;11.30;91.50;;;;;;4974706;28;20134;-79
2023/04/08 08:56:42;;;;;;;0.25;0.25;;;11.50;90.50;;;;;;4979249;28;20457;-80
2023/04/08 08:59:20;;;;;;;0.10;0.10;;;11.40;91.20;;;;;;4961356;28;20046;-81
2023/04/08 09:01:46;;;;;;;0.15;0.15;;;11.60;92.00;;;;;;4973220;28;20031;-80
2023/04/08 09:04:15;;;;;;;0.20;0.20;;;10.40;91.00;;;;;;4956788;28;20591;-81
2023/04/08 09:06:45;;;;;;;0.10;0.10;;;12.00;89.30;;;;;;4971696;28;20647;-82
2023/04/08 09:09:12;;;;;;;0.20;0.20;;;9.20;82.90;;;;;;4972121;28;20198;-78
2023/04/08 09:11:43;;;;;;;0.15;0.15;;;11.90;84.70;;;;;;4956124;28;20035;-78
2023/04/08 09:14:25;;;;;;;0.20;0.20;;;12.00;84.00;;;;;;4950526;29;20056;-79
2023/04/08 09:17:32;;;;;;;0.13;0.13;;;12.20;81.40;;;;;;4953917;28;20075;-78
2023/04/08 09:20:16;;;;;;;0.40;0.40;;;12.10;77.30;;;;;;4955476;29;20023;-77
2023/04/08 09:23:04;;;;;;;0.10;0.10;;;14.00;76.10;;;;;;4936261;29;20039;-77
2023/04/08 09:25:35;;;;;;;0.13;0.13;;;14.00;76.00;;;;;;4948745;29;20728;-78
2023/04/08 09:28:02;;;;;;;0.20;0.20;;;12.20;78.10;;;;;;4947372;29;20182;-78
2023/04/08 09:30:34;;;;;;;0.20;0.20;;;10.90;73.70;;;;;;4958658;28;20074;-79
2023/04/08 09:33:00;;;;;;;0.20;0.20;;;12.50;72.10;;;;;;4964688;28;20516;-78
2023/04/08 09:35:28;;;;;;;0.30;0.30;;;12.50;73.60;;;;;;4965050;28;20047;-78
2023/04/08 09:37:54;;;;;;;0.20;0.20;;;12.60;75.30;;;;;;4966167;28;20038;-85
2023/04/08 09:40:21;;;;;;;0.28;0.28;;;12.60;72.50;;;;;;4963249;28;20023;-78
2023/04/08 09:42:50;;;;;;;0.10;0.10;;;12.30;73.00;;;;;;4964761;28;20019;-82
2023/04/08 09:45:17;;;;;;;0.10;0.10;;;12.10;72.90;;;;;;4965303;28;20026;-80
2023/04/08 09:47:59;;;;;;;0.17;0.17;;;13.10;72.40;;;;;;4964683;28;20031;-85
2023/04/08 09:50:35;;;;;;;0.10;0.10;;;13.10;68.60;;;;;;4967165;28;20023;-78
2023/04/08 09:53:18;;;;;;;0.13;0.13;;;13.30;67.90;;;;;;4966211;28;20027;-79
2023/04/08 09:55:50;;;;;;;0.10;0.10;;;13.90;69.30;;;;;;4965464;28;20031;-80
2023/04/08 09:58:22;;;;;;;0.15;0.15;;;13.90;67.30;;;;;;4964857;28;20031;-76
2023/04/08 10:00:51;;;;;;;0.55;0.55;;;14.20;67.60;;;;;;4966113;28;20029;-77
2023/04/08 10:03:30;;;;;;;0.20;0.20;;;14.50;64.90;;;;;;4969131;28;20019;-86
2023/04/08 10:06:00;;;;;;;0.10;0.10;;;15.00;64.40;;;;;;4968265;28;20037;-81
2023/04/08 10:08:29;;;;;;;0.10;0.10;;;15.60;64.40;;;;;;4965579;28;20292;-83
2023/04/08 10:10:57;;;;;;;0.10;0.10;;;15.50;61.40;;;;;;4965616;28;20026;-83
2023/04/08 10:13:28;;;;;;;0.13;0.13;;;15.40;61.90;;;;;;4965341;28;20023;-82
2023/04/08 10:16:17;;;;;;;0.10;0.10;;;16.60;63.20;;;;;;4967580;28;20566;-83
2023/04/08 10:18:43;;;;;;;1.02;1.02;;;15.80;60.00;;;;;;4966551;28;20030;-81
2023/04/08 10:21:38;;;;;;;0.10;0.10;;;15.90;59.70;;;;;;4964747;28;20604;-79
2023/04/08 10:24:11;;;;;;;0.55;0.55;;;16.30;59.00;;;;;;4962897;28;20093;-84
2023/04/08 10:26:41;;;;;;;0.10;0.10;;;16.50;60.60;;;;;;4965112;28;20034;-76
2023/04/08 10:29:16;;;;;;;0.20;0.20;;;19.80;97.40;;;;;;4963858;28;20050;-84
2023/04/08 10:31:46;;;;;;;0.10;0.10;;;17.40;80.90;;;;;;4963905;28;20038;-79
2023/04/08 10:34:19;;;;;;;0.20;0.20;;;17.80;90.00;;;;;;4964258;28;20030;-89
2023/04/08 10:36:46;;;;;;;0.10;0.10;;;17.80;79.10;;;;;;4963512;28;20027;-83
2023/04/08 10:39:13;;;;;;;0.20;0.20;;;17.40;59.20;;;;;;4964099;28;20042;-77
2023/04/08 10:41:43;;;;;;;1.88;1.77;;;17.10;67.30;;;;;;4963659;28;20670;-76
2023/04/08 10:44:20;;;;;;;0.73;0.73;;;17.20;74.50;;;;;;4963202;28;20026;-77
2023/04/08 10:46:48;;;;;;;0.15;0.15;;;17.10;65.10;;;;;;4964317;28;20098;-76
2023/04/08 10:49:15;;;;;;;0.90;0.90;;;17.60;73.90;;;;;;4962810;28;20026;-82
2023/04/08 10:51:43;;;;;;;0.10;0.10;;;17.70;60.90;;;;;;4946192;28;20448;-78
2023/04/08 10:54:16;;;;;;;0.17;0.17;;;17.70;61.20;;;;;;4964145;28;20651;-78
2023/04/08 10:56:46;;;;;;;0.80;0.43;;;18.00;61.70;;;;;;4962736;28;20029;-83
2023/04/08 10:59:15;;;;;;;0.57;0.57;;;18.10;60.70;;;;;;4950674;28;20113;-84
2023/04/08 11:01:43;;;;;;;0.10;0.10;;;18.20;59.40;;;;;;4966135;28;20030;-77
2023/04/08 11:04:26;;;;;;;0.10;0.10;;;17.90;59.00;;;;;;4969365;28;20029;-78
2023/04/08 11:06:52;;;;;;;0.63;0.63;;;17.30;55.40;;;;;;4971139;28;20122;-79
2023/04/08 11:09:18;;;;;;;0.10;0.10;;;16.60;56.00;;;;;;4971110;28;20023;-78
2023/04/08 11:11:45;;;;;;;0.20;0.20;;;16.10;57.70;;;;;;4968457;28;20075;-76
2023/04/08 11:14:12;;;;;;;0.10;0.10;;;15.80;58.30;;;;;;4967441;28;20650;-76
2023/04/08 11:16:40;;;;;;;0.10;0.10;;;15.70;57.20;;;;;;4968660;28;20350;-78
2023/04/08 11:19:06;;;;;;;0.75;0.75;;;15.50;58.60;;;;;;4951651;28;20019;-81
2023/04/08 11:21:37;;;;;;;0.20;0.20;;;15.20;59.30;;;;;;4964586;28;20235;-80
2023/04/08 11:24:13;;;;;;;13.60;12.70;;;15.20;59.30;;;;;;4947016;28;20034;-82
2023/04/08 11:26:40;;;;;;;9.23;8.63;;;15.30;60.90;;;;;;4964283;28;20019;-80
2023/04/08 11:29:11;;;;;;;4.35;4.05;;;15.10;60.90;;;;;;4950791;28;20043;-77
2023/04/08 11:31:37;;;;;;;1.55;1.55;;;15.40;61.20;;;;;;4962365;28;20038;-90
2023/04/08 11:34:03;;;;;;;0.10;0.10;;;15.30;59.40;;;;;;4962229;28;20062;-77
2023/04/08 11:36:29;;;;;;;0.40;0.40;;;15.30;59.00;;;;;;4963592;28;20027;-78
2023/04/08 11:38:55;;;;;;;0.10;0.10;;;15.00;60.00;;;;;;4962159;28;20015;-84
2023/04/08 11:41:21;;;;;;;0.10;0.10;;;14.90;59.60;;;;;;4963527;28;20031;-86
2023/04/08 11:43:54;;;;;;;1.00;1.00;;;14.90;61.00;;;;;;4962728;28;20015;-77
2023/04/08 11:46:20;;;;;;;1.67;1.63;;;14.60;61.60;;;;;;4952848;28;20027;-87
2023/04/08 11:49:05;;;;;;;0.20;0.20;;;14.30;62.30;;;;;;4962121;28;20193;-77
2023/04/08 11:51:33;;;;;;;0.30;0.30;;;11.30;59.60;;;;;;4962553;28;20031;-81
2023/04/08 11:53:59;;;;;;;0.10;0.10;;;16.50;62.60;;;;;;4963259;28;20365;-76
2023/04/08 11:56:25;;;;;;;0.22;0.22;;;14.90;61.00;;;;;;4962950;28;20097;-77
2023/04/08 11:58:52;;;;;;;0.22;0.22;;;14.90;62.60;;;;;;4961202;28;20033;-84
2023/04/08 12:01:18;;;;;;;0.25;0.25;;;14.90;63.50;;;;;;4966533;28;20102;-77
2023/04/08 12:03:54;;;;;;;0.20;0.20;;;13.60;62.50;;;;;;4962969;28;20027;-78
2023/04/08 12:06:20;;;;;;;0.20;0.20;;;15.10;63.10;;;;;;4961530;28;20023;-76
2023/04/08 12:08:46;;;;;;;0.20;0.20;;;15.40;63.00;;;;;;4955855;28;20022;-76
2023/04/08 12:11:14;;;;;;;3.30;3.20;;;15.30;62.80;;;;;;4961162;28;20058;-79
2023/04/08 12:13:41;;;;;;;0.17;0.17;;;15.20;63.30;;;;;;4947020;28;20058;-78
2023/04/08 12:16:11;;;;;;;0.10;0.10;;;15.30;62.60;;;;;;4938979;29;20246;-77
2023/04/08 12:18:39;;;;;;;0.10;0.10;;;15.20;65.00;;;;;;4953279;28;20031;-77
2023/04/08 12:21:05;;;;;;;0.20;0.20;;;15.30;62.80;;;;;;4944445;28;20019;-77
2023/04/08 12:23:31;;;;;;;0.10;0.10;;;15.20;62.50;;;;;;4963473;28;20038;-85
2023/04/08 12:26:06;;;;;;;1.38;1.33;;;14.80;64.60;;;;;;4946784;28;20392;-87
2023/04/08 12:28:33;;;;;;;0.20;0.20;;;14.20;66.40;;;;;;4962612;28;20038;-84
2023/04/08 12:31:02;;;;;;;6.55;6.13;;;14.00;69.40;;;;;;4964700;28;20573;-84
2023/04/08 12:33:27;;;;;;;0.17;0.17;;;14.20;70.20;;;;;;4964055;28;20038;-88
2023/04/08 12:35:53;;;;;;;0.28;0.28;;;14.00;72.60;;;;;;4962479;28;20039;-77
2023/04/08 12:38:19;;;;;;;0.10;0.10;;;;;;;;;;4963883;28;20023;-79
2023/04/08 12:40:52;;;;;;;0.20;0.20;;;13.70;71.90;;;;;;4966411;28;20038;-81
2023/04/08 12:43:22;;;;;;;0.10;0.10;;;11.20;69.80;;;;;;4943670;28;20023;-87
2023/04/08 12:45:53;;;;;;;0.20;0.20;;;13.50;72.80;;;;;;4907307;29;20110;-85
2023/04/08 12:48:19;;;;;;;0.68;0.68;;;;;;;;;;4907705;29;20031;-75
2023/04/08 12:50:48;;;;;;;0.20;0.20;;;13.20;74.50;;;;;;4926039;29;20019;-86
2023/04/08 12:53:14;;;;;;;0.20;0.20;;;13.30;78.80;;;;;;4928729;29;20028;-77
2023/04/08 12:55:40;;;;;;;0.45;0.45;;;13.80;82.50;;;;;;4910969;29;20028;-80
2023/04/08 12:58:06;;;;;;;0.10;0.10;;;13.10;81.60;;;;;;4926354;29;20520;-77
2023/04/08 13:00:32;;;;;;;0.68;0.68;;;13.10;84.30;;;;;;4928277;29;20033;-76
2023/04/08 13:02:57;;;;;;;0.10;0.10;;;13.10;86.40;;;;;;4925865;29;20024;-74
2023/04/08 13:05:23;;;;;;;0.40;0.40;;;13.10;86.80;;;;;;4925072;29;20645;-79
2023/04/08 13:07:50;;;;;;;0.55;0.55;;;;;;;;;;4927393;29;20024;-73
2023/04/08 13:10:15;;;;;;;0.10;0.10;;;13.30;85.20;;;;;;4926430;28;20071;-74
2023/04/08 13:12:41;;;;;;;0.75;0.75;;;13.70;85.60;;;;;;4926029;29;20055;-78